Time;durP1;ratioP1;P1;durP2;ratioP2;P2;SDS_P1;SDS_P2;PMS_P1;PMS_P2;Temp;Humidity;BMP_temperature;BMP_pressure;BME280_temperature;BME280_humidity;BME280_pressure;Samples;Min_cycle;Max_cycle;Signal;HPM_P1;HPM_P2
2022/01/15 00:01:42;;;;;;;12.20;6.82;;;;;;;;;;5058764;28;20370;-95
2022/01/15 00:04:08;;;;;;;11.32;6.40;;;;;;;;;;5058194;28;20407;-94
2022/01/15 00:06:35;;;;;;;13.80;7.30;;;;;;;;;;5057217;28;20043;-93
2022/01/15 00:09:01;;;;;;;12.43;6.68;;;;;;;;;;5090426;28;20036;-93
2022/01/15 00:11:27;;;;;;;15.57;7.10;;;;;;;;;;5056070;28;20046;-93
2022/01/15 00:13:57;;;;;;;17.65;6.90;;;;;;;;;;5089338;28;20040;-93
2022/01/15 00:16:33;;;;;;;12.20;6.50;;;;;;;;;;5072313;28;20036;-93
2022/01/15 00:19:08;;;;;;;15.35;6.55;;;;;;;;;;5071787;28;20087;-93
2022/01/15 00:21:34;;;;;;;10.60;5.65;;;;;;;;;;5089113;28;20384;-93
2022/01/15 00:24:01;;;;;;;23.50;9.68;;;;;;;;;;5088758;28;20130;-93
2022/01/15 00:26:27;;;;;;;19.80;8.23;;;;;;;;;;5089414;28;20040;-93
2022/01/15 00:28:53;;;;;;;15.43;6.93;;;;;;;;;;5089333;28;20043;-93
2022/01/15 00:31:19;;;;;;;16.20;6.70;;;;;;;;;;5055241;28;20036;-93
2022/01/15 00:33:46;;;;;;;17.40;7.30;;;;;;;;;;5054767;28;20033;-93
2022/01/15 00:36:12;;;;;;;12.88;6.05;;;;;;;;;;5054854;28;20032;-93
2022/01/15 00:38:38;;;;;;;16.75;7.18;;;;;;;;;;5071678;28;20048;-92
2022/01/15 00:41:04;;;;;;;22.13;8.93;;;;;;;;;;5088421;28;20181;-93
2022/01/15 00:43:30;;;;;;;23.17;8.70;;;;;;;;;;5054812;28;20518;-92
2022/01/15 00:45:57;;;;;;;15.40;6.88;;;;;;;;;;5088392;28;20044;-93
2022/01/15 00:48:24;;;;;;;13.60;6.38;;;;;;;;;;5053986;28;20042;-92
2022/01/15 00:50:50;;;;;;;14.27;6.75;;;;;;;;;;5054322;28;20066;-93
2022/01/15 00:53:17;;;;;;;12.23;6.03;;;;;;;;;;5054344;28;20389;-93
2022/01/15 00:55:43;;;;;;;14.82;6.78;;;;;;;;;;5089186;28;20085;-92
2022/01/15 00:58:10;;;;;;;17.65;7.22;;;;;;;;;;5058686;28;20420;-92
2022/01/15 01:00:36;;;;;;;13.82;6.15;;;;;;;;;;5109492;28;20122;-93
2022/01/15 01:03:03;;;;;;;16.30;6.57;;;;;;;;;;5058174;28;20123;-93
2022/01/15 01:05:29;;;;;;;16.98;6.90;;;;;;;;;;5090458;28;20576;-93
2022/01/15 01:07:56;;;;;;;11.60;5.85;;;;;;;;;;5091106;28;20036;-93
2022/01/15 01:23:41;;;;;;;12.48;6.03;;;;;;;;;;5091762;28;20383;-93
2022/01/15 01:26:23;;;;;;;15.07;6.45;;;;;;;;;;5109187;28;20085;-93
2022/01/15 01:28:59;;;;;;;13.85;6.47;;;;;;;;;;5109177;28;20403;-93
2022/01/15 01:31:35;;;;;;;15.52;6.97;;;;;;;;;;5109256;28;20075;-93
2022/01/15 01:34:08;;;;;;;12.98;6.32;;;;;;;;;;5109385;28;20085;-93
2022/01/15 01:37:02;;;;;;;13.18;6.05;;;;;;;;;;5109191;28;20067;-93
2022/01/15 01:39:43;;;;;;;13.63;6.43;;;;;;;;;;5109760;28;20487;-93
2022/01/15 01:45:00;;;;;;;12.65;6.65;;;;;;;;;;5126432;27;20535;-93
2022/01/15 01:47:39;;;;;;;12.13;5.88;;;;;;;;;;5126188;27;20538;-93
2022/01/15 01:50:07;;;;;;;15.18;7.00;;;;;;;;;;5109411;28;20499;-93
2022/01/15 01:52:34;;;;;;;13.40;6.18;;;;;;;;;;5109186;28;20407;-93
2022/01/15 01:55:00;;;;;;;13.90;6.70;;;;;;;;;;5108605;28;20042;-93
2022/01/15 01:57:26;;;;;;;24.70;7.75;;;;;;;;;;5108635;28;20044;-93
2022/01/15 01:59:52;;;;;;;12.48;5.70;;;;;;;;;;5108571;28;20495;-93
2022/01/15 02:02:18;;;;;;;15.68;6.35;;;;;;;;;;5108302;28;20047;-92
2022/01/15 02:04:45;;;;;;;14.00;6.70;;;;;;;;;;5109113;27;20048;-93
2022/01/15 02:07:11;;;;;;;19.33;7.93;;;;;;;;;;5108172;28;20465;-93
2022/01/15 02:09:38;;;;;;;16.13;6.63;;;;;;;;;;5109227;28;20134;-93
2022/01/15 02:12:04;;;;;;;26.70;8.50;;;;;;;;;;5108564;28;20072;-93
2022/01/15 02:14:31;;;;;;;21.83;8.43;;;;;;;;;;5105863;28;20036;-93
2022/01/15 02:16:57;;;;;;;13.88;6.03;;;;;;;;;;5071946;28;20173;-93
2022/01/15 02:19:34;;;;;;;14.88;6.53;;;;;;;;;;5108286;28;20127;-93
2022/01/15 02:24:45;;;;;;;12.38;6.68;;;;;;;;;;5125218;27;20131;-93
2022/01/15 02:27:12;;;;;;;13.93;6.60;;;;;;;;;;5108163;27;20047;-93
2022/01/15 02:29:38;;;;;;;12.82;6.45;;;;;;;;;;5108404;28;20035;-93
2022/01/15 02:32:04;;;;;;;14.88;7.60;;;;;;;;;;5109335;28;20486;-93
2022/01/15 02:34:31;;;;;;;23.80;8.45;;;;;;;;;;5109164;28;20040;-93
2022/01/15 02:36:57;;;;;;;19.40;7.95;;;;;;;;;;5109705;27;20470;-94
2022/01/15 02:39:23;;;;;;;26.83;9.98;;;;;;;;;;5109177;28;20043;-93
2022/01/15 02:41:50;;;;;;;22.83;8.77;;;;;;;;;;5109159;28;20102;-93
2022/01/15 02:44:19;;;;;;;16.58;8.20;;;;;;;;;;5109191;28;20040;-93
2022/01/15 02:49:15;;;;;;;18.15;8.18;;;;;;;;;;5126028;27;20076;-93
2022/01/15 02:51:42;;;;;;;25.75;9.60;;;;;;;;;;5108312;28;20071;-92
2022/01/15 02:54:08;;;;;;;19.20;8.55;;;;;;;;;;5108800;28;20032;-93
2022/01/15 02:56:35;;;;;;;16.02;7.63;;;;;;;;;;5109023;28;20089;-93
2022/01/15 02:59:03;;;;;;;15.98;7.75;;;;;;;;;;5126133;27;20040;-93
2022/01/15 03:01:29;;;;;;;21.25;8.73;;;;;;;;;;5125224;27;20036;-94
2022/01/15 03:03:56;;;;;;;15.90;7.22;;;;;;;;;;5108491;28;20414;-93
2022/01/15 03:06:22;;;;;;;24.35;9.25;;;;;;;;;;5107718;28;20036;-93
2022/01/15 03:08:49;;;;;;;23.95;9.15;;;;;;;;;;5107136;28;20462;-92
2022/01/15 03:11:15;;;;;;;13.98;6.60;;;;;;;;;;5107645;28;20048;-92
2022/01/15 03:13:42;;;;;;;12.90;5.82;;;;;;;;;;5090589;28;20101;-94
2022/01/15 03:16:09;;;;;;;14.50;6.47;;;;;;;;;;5107152;28;20035;-93
2022/01/15 03:18:35;;;;;;;17.80;7.70;;;;;;;;;;5107440;28;20483;-93
2022/01/15 03:21:02;;;;;;;14.88;6.32;;;;;;;;;;5107442;28;20036;-93
2022/01/15 03:23:28;;;;;;;19.45;7.85;;;;;;;;;;5106773;28;20044;-93
2022/01/15 03:25:54;;;;;;;11.77;5.65;;;;;;;;;;5124538;27;20046;-93
2022/01/15 03:28:20;;;;;;;20.45;8.25;;;;;;;;;;5106812;28;20044;-93
2022/01/15 03:30:47;;;;;;;18.23;7.20;;;;;;;;;;5090198;28;20036;-93
2022/01/15 03:33:13;;;;;;;13.32;6.68;;;;;;;;;;5106413;27;20495;-93
2022/01/15 03:35:39;;;;;;;14.48;6.15;;;;;;;;;;5124101;27;20551;-93
2022/01/15 03:38:06;;;;;;;11.90;5.30;;;;;;;;;;5089525;28;20401;-93
2022/01/15 03:40:32;;;;;;;14.95;5.85;;;;;;;;;;5106372;28;20044;-93
2022/01/15 03:42:59;;;;;;;16.58;7.07;;;;;;;;;;5106357;28;20036;-93
2022/01/15 03:45:25;;;;;;;12.00;5.40;;;;;;;;;;5106590;28;20634;-93
2022/01/15 03:47:52;;;;;;;12.32;6.00;;;;;;;;;;5106195;28;20040;-93
2022/01/15 03:50:19;;;;;;;15.60;6.30;;;;;;;;;;5106666;28;20063;-93
2022/01/15 03:52:45;;;;;;;12.80;6.07;;;;;;;;;;5105965;28;20085;-92
2022/01/15 03:55:13;;;;;;;10.65;5.22;;;;;;;;;;5106345;28;20035;-93
2022/01/15 03:57:39;;;;;;;13.15;5.53;;;;;;;;;;5107369;27;20587;-93
2022/01/15 04:00:11;;;;;;;12.88;5.35;;;;;;;;;;5106900;28;20483;-93
2022/01/15 04:02:37;;;;;;;11.45;5.50;;;;;;;;;;5106563;28;20123;-93
2022/01/15 04:05:04;;;;;;;15.43;5.65;;;;;;;;;;5107189;28;20066;-93
2022/01/15 04:07:30;;;;;;;12.55;5.40;;;;;;;;;;5107296;28;20462;-94
2022/01/15 04:09:56;;;;;;;12.95;6.13;;;;;;;;;;5107079;28;20266;-93
2022/01/15 04:12:22;;;;;;;11.20;5.10;;;;;;;;;;5107039;28;20043;-93
2022/01/15 04:14:49;;;;;;;10.27;4.88;;;;;;;;;;5106668;28;20040;-93
2022/01/15 04:17:15;;;;;;;10.70;5.10;;;;;;;;;;5106402;28;20044;-93
2022/01/15 04:19:41;;;;;;;13.48;6.20;;;;;;;;;;5106764;28;20040;-93
2022/01/15 04:22:07;;;;;;;12.10;5.60;;;;;;;;;;5106709;28;20036;-92
2022/01/15 04:24:34;;;;;;;11.90;5.13;;;;;;;;;;5105959;28;20044;-93
2022/01/15 04:27:00;;;;;;;12.38;6.00;;;;;;;;;;5072101;28;20109;-93
2022/01/15 04:29:26;;;;;;;13.30;5.93;;;;;;;;;;5106327;28;20036;-93
2022/01/15 04:31:53;;;;;;;11.90;5.28;;;;;;;;;;5071894;28;20085;-93
2022/01/15 04:34:20;;;;;;;12.25;5.65;;;;;;;;;;5107308;28;20040;-92
2022/01/15 04:36:47;;;;;;;12.35;5.65;;;;;;;;;;5107519;28;20462;-93
2022/01/15 04:39:13;;;;;;;11.15;4.95;;;;;;;;;;5107115;28;20036;-93
2022/01/15 04:41:40;;;;;;;10.57;5.38;;;;;;;;;;5106796;28;20501;-93
2022/01/15 04:44:06;;;;;;;13.52;5.03;;;;;;;;;;5107409;28;20063;-93
2022/01/15 04:46:34;;;;;;;10.50;5.00;;;;;;;;;;5106691;28;20069;-93
2022/01/15 04:49:00;;;;;;;14.63;5.10;;;;;;;;;;5106518;28;20040;-93
2022/01/15 04:51:26;;;;;;;11.68;4.97;;;;;;;;;;5089713;28;20040;-93
2022/01/15 04:53:53;;;;;;;14.73;5.32;;;;;;;;;;5106185;28;20044;-92
2022/01/15 04:56:19;;;;;;;12.52;5.03;;;;;;;;;;5106576;28;20502;-93
2022/01/15 04:58:45;;;;;;;15.02;6.15;;;;;;;;;;5106715;28;20039;-93
2022/01/15 05:01:12;;;;;;;12.30;5.20;;;;;;;;;;5071730;28;20079;-93
2022/01/15 05:03:38;;;;;;;16.75;6.32;;;;;;;;;;5097660;28;20032;-93
2022/01/15 05:06:04;;;;;;;14.35;6.05;;;;;;;;;;5101772;28;20040;-93
2022/01/15 05:08:31;;;;;;;13.85;5.65;;;;;;;;;;5071679;28;20065;-93
2022/01/15 05:11:00;;;;;;;12.95;5.90;;;;;;;;;;5088999;28;20414;-94
2022/01/15 05:13:29;;;;;;;16.38;5.80;;;;;;;;;;5071846;28;20410;-93
2022/01/15 05:15:56;;;;;;;16.05;5.75;;;;;;;;;;5088909;28;20055;-93
2022/01/15 05:18:23;;;;;;;12.25;4.97;;;;;;;;;;5106750;28;20399;-93
2022/01/15 05:20:49;;;;;;;13.15;5.60;;;;;;;;;;5106020;28;20127;-93
2022/01/15 05:23:15;;;;;;;15.40;5.50;;;;;;;;;;5105858;28;20036;-93
2022/01/15 05:25:42;;;;;;;15.23;5.63;;;;;;;;;;5072214;28;20474;-93
2022/01/15 05:28:08;;;;;;;14.32;6.10;;;;;;;;;;5105825;28;20040;-93
2022/01/15 05:30:35;;;;;;;13.63;5.72;;;;;;;;;;5106057;28;20028;-93
2022/01/15 05:33:01;;;;;;;14.75;5.65;;;;;;;;;;5071329;28;20040;-93
2022/01/15 05:35:27;;;;;;;11.70;4.88;;;;;;;;;;5106090;28;20101;-93
2022/01/15 05:37:54;;;;;;;12.05;5.10;;;;;;;;;;5105843;28;20039;-93
2022/01/15 05:40:21;;;;;;;13.02;5.45;;;;;;;;;;5105370;28;20047;-93
2022/01/15 05:42:47;;;;;;;12.63;5.35;;;;;;;;;;5106386;28;20126;-93
2022/01/15 05:45:13;;;;;;;11.07;5.25;;;;;;;;;;5108998;27;20295;-93
2022/01/15 05:47:39;;;;;;;13.38;5.20;;;;;;;;;;5109018;28;20048;-93
2022/01/15 05:50:06;;;;;;;10.15;4.85;;;;;;;;;;5109469;28;20169;-92
2022/01/15 05:52:32;;;;;;;14.68;5.70;;;;;;;;;;5109539;28;20036;-92
2022/01/15 05:54:58;;;;;;;14.02;5.72;;;;;;;;;;5108594;28;20043;-93
2022/01/15 05:57:25;;;;;;;12.25;4.57;;;;;;;;;;5108577;28;20122;-93
2022/01/15 05:59:51;;;;;;;9.70;4.22;;;;;;;;;;5108330;28;20130;-93
2022/01/15 06:02:18;;;;;;;10.38;4.68;;;;;;;;;;5108472;28;20036;-93
2022/01/15 06:04:44;;;;;;;9.52;4.25;;;;;;;;;;5108039;28;20078;-94
2022/01/15 06:07:11;;;;;;;13.65;5.30;;;;;;;;;;5108438;28;20380;-93
2022/01/15 06:09:37;;;;;;;21.25;7.47;;;;;;;;;;5107828;28;20084;-93
2022/01/15 06:12:04;;;;;;;16.77;6.43;;;;;;;;;;5090794;28;20090;-93
2022/01/15 06:14:31;;;;;;;15.65;6.60;;;;;;;;;;5073822;28;20032;-92
2022/01/15 06:17:03;;;;;;;11.32;5.00;;;;;;;;;;5107680;28;20118;-93
2022/01/15 06:19:29;;;;;;;12.35;4.63;;;;;;;;;;5107722;28;20079;-92
2022/01/15 06:21:56;;;;;;;11.73;4.93;;;;;;;;;;5108060;28;20495;-93
2022/01/15 06:24:22;;;;;;;11.05;4.60;;;;;;;;;;5107481;28;20085;-93
2022/01/15 06:26:49;;;;;;;12.50;5.15;;;;;;;;;;5090916;28;20036;-93
2022/01/15 06:29:15;;;;;;;11.23;4.20;;;;;;;;;;5107469;28;20036;-92
2022/01/15 06:31:41;;;;;;;12.95;4.90;;;;;;;;;;5104694;28;20119;-93
2022/01/15 06:34:08;;;;;;;12.10;4.90;;;;;;;;;;5107126;27;20036;-93
2022/01/15 06:36:34;;;;;;;10.57;4.40;;;;;;;;;;5107266;28;20420;-93
2022/01/15 06:39:00;;;;;;;10.32;4.03;;;;;;;;;;5107458;28;20531;-93
2022/01/15 06:41:26;;;;;;;12.27;5.47;;;;;;;;;;5106797;28;20040;-93
2022/01/15 06:43:53;;;;;;;10.90;4.72;;;;;;;;;;5107812;28;20043;-93
2022/01/15 06:46:19;;;;;;;12.00;4.82;;;;;;;;;;5108148;27;20044;-93
2022/01/15 06:48:45;;;;;;;14.85;5.75;;;;;;;;;;5107758;28;20075;-93
2022/01/15 06:51:12;;;;;;;11.43;4.68;;;;;;;;;;5107311;28;20116;-92
2022/01/15 06:53:38;;;;;;;12.95;5.10;;;;;;;;;;5107435;28;20032;-92
2022/01/15 06:56:04;;;;;;;11.95;5.55;;;;;;;;;;5090729;28;20120;-93
2022/01/15 06:58:31;;;;;;;15.98;6.82;;;;;;;;;;5108153;28;20453;-93
2022/01/15 07:00:57;;;;;;;17.52;6.28;;;;;;;;;;5107536;28;20089;-92
2022/01/15 07:03:23;;;;;;;12.07;4.68;;;;;;;;;;5107883;28;20046;-93
2022/01/15 07:05:49;;;;;;;11.32;5.47;;;;;;;;;;5107797;28;20534;-92
2022/01/15 07:08:16;;;;;;;16.30;6.13;;;;;;;;;;5074024;28;20093;-93
2022/01/15 07:11:07;;;;;;;12.80;5.55;;;;;;;;;;5074004;28;20044;-93
2022/01/15 07:13:33;;;;;;;14.40;5.50;;;;;;;;;;5073791;28;20506;-93
2022/01/15 07:16:00;;;;;;;19.58;6.00;;;;;;;;;;5073459;28;20036;-93
2022/01/15 07:18:26;;;;;;;15.27;5.90;;;;;;;;;;5107209;28;20036;-92
2022/01/15 07:20:53;;;;;;;12.55;5.07;;;;;;;;;;5107638;28;20321;-93
2022/01/15 07:23:19;;;;;;;13.00;5.10;;;;;;;;;;5107449;28;20089;-93
2022/01/15 07:25:46;;;;;;;10.85;4.55;;;;;;;;;;5109489;28;20050;-93
2022/01/15 07:28:12;;;;;;;14.98;5.68;;;;;;;;;;5107845;28;20040;-92
2022/01/15 07:30:39;;;;;;;13.60;5.88;;;;;;;;;;5108507;28;20053;-93
2022/01/15 07:33:05;;;;;;;10.60;4.63;;;;;;;;;;5109213;28;20035;-91
2022/01/15 07:35:31;;;;;;;10.10;4.82;;;;;;;;;;5107661;28;20040;-90
2022/01/15 07:37:58;;;;;;;10.68;4.72;;;;;;;;;;5107807;28;20040;-92
2022/01/15 07:40:24;;;;;;;11.05;4.65;;;;;;;;;;5106949;28;20503;-91
2022/01/15 07:42:50;;;;;;;11.93;5.18;;;;;;;;;;5101718;27;20127;-92
2022/01/15 07:45:17;;;;;;;11.57;4.60;;;;;;;;;;5077045;28;20048;-91
2022/01/15 07:47:44;;;;;;;14.85;5.85;;;;;;;;;;5106936;27;20041;-91
2022/01/15 07:50:15;;;;;;;15.32;5.55;;;;;;;;;;5121426;27;20048;-91
2022/01/15 07:52:41;;;;;;;12.77;5.75;;;;;;;;;;5129277;27;20082;-92
2022/01/15 07:55:08;;;;;;;12.25;5.32;;;;;;;;;;5080576;28;20028;-92
2022/01/15 07:57:34;;;;;;;16.35;6.07;;;;;;;;;;5109126;28;20048;-93
2022/01/15 08:00:00;;;;;;;12.40;5.15;;;;;;;;;;5091553;28;20040;-93
2022/01/15 08:02:26;;;;;;;9.80;4.50;;;;;;;;;;5108404;28;20040;-90
2022/01/15 08:04:52;;;;;;;10.40;4.53;;;;;;;;;;5076935;28;20028;-91
2022/01/15 08:07:19;;;;;;;10.10;4.47;;;;;;;;;;5076776;28;20051;-92
2022/01/15 08:09:45;;;;;;;11.82;4.47;;;;;;;;;;5084646;28;20439;-92
2022/01/15 08:12:11;;;;;;;11.02;4.63;;;;;;;;;;5108658;28;20453;-92
2022/01/15 08:14:38;;;;;;;10.88;4.22;;;;;;;;;;5090590;28;20403;-91
2022/01/15 08:17:07;;;;;;;11.38;3.85;;;;;;;;;;5076159;28;20063;-92
2022/01/15 08:19:33;;;;;;;7.68;2.90;;;;;;;;;;5073998;28;20040;-92
2022/01/15 08:22:00;;;;;;;6.88;2.53;;;;;;;;;;5092282;28;20044;-93
2022/01/15 08:24:26;;;;;;;8.75;3.08;;;;;;;;;;5108966;28;20086;-93
2022/01/15 08:26:52;;;;;;;7.80;2.83;;;;;;;;;;5099820;27;20044;-93
2022/01/15 08:29:19;;;;;;;8.35;2.63;;;;;;;;;;5089979;28;20036;-93
2022/01/15 08:31:45;;;;;;;6.60;2.38;;;;;;;;;;5090532;28;20043;-92
2022/01/15 08:34:11;;;;;;;8.82;3.25;;;;;;;;;;5090529;28;20132;-93
2022/01/15 08:36:37;;;;;;;8.20;3.72;;;;;;;;;;5106541;28;20036;-93
2022/01/15 08:39:08;;;;;;;7.80;3.05;;;;;;;;;;5102217;28;20094;-93
2022/01/15 08:41:34;;;;;;;8.05;3.45;;;;;;;;;;5108314;28;20052;-94
2022/01/15 08:44:00;;;;;;;8.52;3.28;;;;;;;;;;5083416;28;20085;-94
2022/01/15 08:46:27;;;;;;;9.07;4.00;;;;;;;;;;5096185;28;20047;-92
2022/01/15 08:48:53;;;;;;;9.77;3.55;;;;;;;;;;5108436;28;20039;-93
2022/01/15 08:51:19;;;;;;;11.15;3.70;;;;;;;;;;5103028;28;20235;-93
2022/01/15 08:53:45;;;;;;;9.70;4.32;;;;;;;;;;5087761;28;20513;-94
2022/01/15 08:56:12;;;;;;;11.57;5.13;;;;;;;;;;5105106;28;20388;-93
2022/01/15 08:58:38;;;;;;;13.60;5.45;;;;;;;;;;5105845;28;20043;-93
2022/01/15 09:01:05;;;;;;;13.65;5.57;;;;;;;;;;5077270;28;20039;-94
2022/01/15 09:03:33;;;;;;;14.38;5.28;;;;;;;;;;5095186;28;20051;-93
2022/01/15 09:06:00;;;;;;;13.77;6.43;;;;;;;;;;5077961;28;20047;-93
2022/01/15 09:08:27;;;;;;;14.95;6.95;;;;;;;;;;5073944;28;20041;-93
2022/01/15 09:10:54;;;;;;;13.82;7.22;;;;;;;;;;5108223;28;20527;-94
2022/01/15 09:13:21;;;;;;;20.10;11.07;;;;;;;;;;5108932;28;20469;-93
2022/01/15 09:15:47;;;;;;;22.55;12.73;;;;;;;;;;5108801;28;20449;-95
2022/01/15 09:18:15;;;;;;;18.30;9.27;;;;;;;;;;5113785;27;20066;-94
2022/01/15 09:20:41;;;;;;;17.30;9.25;;;;;;;;;;5113775;28;20054;-94
2022/01/15 09:23:08;;;;;;;18.88;8.18;;;;;;;;;;5078935;28;20403;-93
2022/01/15 09:25:34;;;;;;;19.67;8.70;;;;;;;;;;5078910;28;20040;-93
2022/01/15 09:30:45;;;;;;;17.70;9.18;;;;;;;;;;5095444;28;20036;-94
2022/01/15 09:33:11;;;;;;;19.85;11.18;;;;;;;;;;5095491;28;20040;-94
2022/01/15 09:35:38;;;;;;;20.10;10.68;;;;;;;;;;5085664;28;20064;-94
2022/01/15 09:38:04;;;;;;;19.77;10.00;;;;;;;;;;5078648;28;20044;-94
2022/01/15 09:40:30;;;;;;;21.60;10.65;;;;;;;;;;5077894;28;20131;-94
2022/01/15 09:42:57;;;;;;;20.67;9.65;;;;;;;;;;5077174;28;20511;-94
2022/01/15 09:45:29;;;;;;;19.80;10.07;;;;;;;;;;5094896;28;20486;-94
2022/01/15 09:47:58;;;;;;;20.50;10.70;;;;;;;;;;5111763;28;20047;-93
2022/01/15 09:50:44;;;;;;;20.90;11.05;;;;;;;;;;5111825;28;20032;-94
2022/01/15 09:53:11;;;;;;;17.80;9.65;;;;;;;;;;5112409;28;20051;-94
2022/01/15 09:55:38;;;;;;;20.92;10.55;;;;;;;;;;5077868;28;20079;-94
2022/01/15 09:58:04;;;;;;;21.77;10.63;;;;;;;;;;5077213;28;20126;-94
2022/01/15 10:00:31;;;;;;;20.38;10.30;;;;;;;;;;5079452;28;20051;-94
2022/01/15 10:02:57;;;;;;;21.17;11.25;;;;;;;;;;5078490;28;20044;-95
2022/01/15 10:05:25;;;;;;;19.17;9.63;;;;;;;;;;5077468;28;20040;-93
2022/01/15 10:08:13;;;;;;;18.08;9.40;;;;;;;;;;5075812;28;20139;-93
2022/01/15 10:10:47;;;;;;;17.25;9.60;;;;;;;;;;5076003;28;20052;-92
2022/01/15 10:13:15;;;;;;;17.73;9.68;;;;;;;;;;5075856;28;20551;-93
2022/01/15 10:15:46;;;;;;;16.75;9.40;;;;;;;;;;5077051;28;20047;-92
2022/01/15 10:18:19;;;;;;;17.77;8.95;;;;;;;;;;5110765;28;20399;-93
2022/01/15 10:20:45;;;;;;;16.40;8.70;;;;;;;;;;5112714;27;20400;-94
2022/01/15 10:23:16;;;;;;;14.65;7.97;;;;;;;;;;5113549;28;20075;-94
2022/01/15 10:25:43;;;;;;;19.08;8.30;;;;;;;;;;5075343;28;20080;-93
2022/01/15 10:28:09;;;;;;;17.00;9.05;;;;;;;;;;5106655;28;20099;-94
2022/01/15 10:30:36;;;;;;;17.33;9.10;;;;;;;;;;5109691;28;20033;-93
2022/01/15 10:33:04;;;;;;;17.90;8.98;;;;;;;;;;5109857;28;20036;-94
2022/01/15 10:35:35;;;;;;;16.98;9.45;;;;;;;;;;5077490;28;20201;-93
2022/01/15 10:38:03;;;;;;;17.20;9.05;;;;;;;;;;5077195;28;20508;-92
2022/01/15 10:40:40;;;;;;;15.88;9.15;;;;;;;;;;5111608;28;20050;-94
2022/01/15 10:43:06;;;;;;;18.15;9.15;;;;;;;;;;5077253;28;20492;-94
2022/01/15 10:45:34;;;;;;;15.48;8.48;;;;;;;;;;5077584;28;20146;-94
2022/01/15 10:48:02;;;;;;;20.27;10.07;;;;;;;;;;5076831;28;20048;-93
2022/01/15 10:50:31;;;;;;;17.83;9.23;;;;;;;;;;5077217;28;20036;-94
2022/01/15 10:52:58;;;;;;;19.45;9.45;;;;;;;;;;5076842;28;20040;-93
2022/01/15 10:55:27;;;;;;;18.98;9.35;;;;;;;;;;5076757;28;20039;-92
2022/01/15 10:57:55;;;;;;;18.33;10.00;;;;;;;;;;5110558;28;20039;-93
2022/01/15 11:00:37;;;;;;;19.83;11.07;;;;;;;;;;5108833;28;20110;-94
2022/01/15 11:03:14;;;;;;;19.65;10.70;;;;;;;;;;5110684;28;20040;-94
2022/01/15 11:05:41;;;;;;;21.27;10.80;;;;;;;;;;5076648;28;20060;-94
2022/01/15 11:08:18;;;;;;;20.77;10.35;;;;;;;;;;5076525;28;20043;-93
2022/01/15 11:10:48;;;;;;;19.88;10.95;;;;;;;;;;5076577;28;20526;-94
2022/01/15 11:13:16;;;;;;;21.45;11.40;;;;;;;;;;5076950;28;20513;-93
2022/01/15 11:15:44;;;;;;;21.55;11.38;;;;;;;;;;5075858;28;20036;-93
2022/01/15 11:18:24;;;;;;;17.65;10.00;;;;;;;;;;5110139;28;20082;-94
2022/01/15 11:20:52;;;;;;;19.75;11.23;;;;;;;;;;5120370;27;20052;-93
2022/01/15 11:23:22;;;;;;;20.42;11.52;;;;;;;;;;5135894;27;20039;-94
2022/01/15 11:25:50;;;;;;;20.38;12.32;;;;;;;;;;5065330;28;20124;-93
2022/01/15 11:28:17;;;;;;;23.95;12.98;;;;;;;;;;5123515;27;20041;-93
2022/01/15 11:30:44;;;;;;;18.23;11.30;;;;;;;;;;5126085;27;20119;-94
2022/01/15 11:33:12;;;;;;;20.08;11.93;;;;;;;;;;5124082;27;20041;-94
2022/01/15 11:35:40;;;;;;;17.25;10.52;;;;;;;;;;5126668;27;20555;-93
2022/01/15 11:38:06;;;;;;;19.95;11.75;;;;;;;;;;5127876;27;20051;-94
2022/01/15 11:40:34;;;;;;;18.95;11.40;;;;;;;;;;5076280;28;20050;-93
2022/01/15 11:43:19;;;;;;;20.35;11.77;;;;;;;;;;5072891;28;20056;-93
2022/01/15 11:45:45;;;;;;;;;;;;;;;;;;5073299;28;20170;-93
2022/01/15 11:48:25;;;;;;;20.00;12.52;;;;;;;;;;5082692;28;19920;-93
2022/01/15 11:51:10;;;;;;;21.48;12.63;;;;;;;;;;5055323;28;20119;-93
2022/01/15 11:53:51;;;;;;;23.00;12.90;;;;;;;;;;5056974;28;20400;-93
2022/01/15 11:56:18;;;;;;;27.70;17.70;;;;;;;;;;5055640;28;20440;-93
2022/01/15 11:58:44;;;;;;;24.48;13.95;;;;;;;;;;5064903;28;20421;-94
2022/01/15 12:01:30;;;;;;;24.70;14.63;;;;;;;;;;5096141;28;20032;-93
2022/01/15 12:04:14;;;;;;;23.75;14.48;;;;;;;;;;5095418;28;20039;-92
2022/01/15 12:06:59;;;;;;;23.10;13.48;;;;;;;;;;5073743;28;20131;-93
2022/01/15 12:09:37;;;;;;;22.00;14.07;;;;;;;;;;5074564;28;20044;-91
2022/01/15 12:12:33;;;;;;;25.48;14.95;;;;;;;;;;5058699;28;20442;-93
2022/01/15 12:15:01;;;;;;;23.50;14.45;;;;;;;;;;5059100;28;20039;-93
2022/01/15 12:17:39;;;;;;;23.85;13.93;;;;;;;;;;5057439;28;20036;-93
2022/01/15 12:20:17;;;;;;;25.33;15.25;;;;;;;;;;5059415;28;20040;-93
2022/01/15 12:22:45;;;;;;;24.45;14.13;;;;;;;;;;5058178;28;20036;-93
2022/01/15 12:25:12;;;;;;;24.73;15.48;;;;;;;;;;5056612;28;20396;-93
2022/01/15 12:27:39;;;;;;;25.35;14.90;;;;;;;;;;5073771;28;20040;-94
2022/01/15 12:30:06;;;;;;;27.83;15.38;;;;;;;;;;5058205;28;20055;-93
2022/01/15 12:32:39;;;;;;;25.52;14.90;;;;;;;;;;5072709;28;20036;-92
2022/01/15 12:35:10;;;;;;;23.25;14.27;;;;;;;;;;5077572;28;20046;-93
2022/01/15 12:37:37;;;;;;;25.13;15.38;;;;;;;;;;5070613;28;20531;-93
2022/01/15 12:40:06;;;;;;;25.08;15.45;;;;;;;;;;5061220;28;20445;-94
2022/01/15 12:42:34;;;;;;;23.98;13.98;;;;;;;;;;5055222;28;20047;-90
2022/01/15 12:45:00;;;;;;;23.08;14.50;;;;;;;;;;5077533;28;20040;-93
2022/01/15 12:47:41;;;;;;;25.25;14.93;;;;;;;;;;5055992;28;20171;-93
2022/01/15 12:50:07;;;;;;;28.02;16.55;;;;;;;;;;5060182;28;20050;-92
2022/01/15 12:52:33;;;;;;;26.73;16.33;;;;;;;;;;5077036;28;20451;-92
2022/01/15 12:55:00;;;;;;;26.83;15.93;;;;;;;;;;5078961;28;20064;-91
2022/01/15 12:57:37;;;;;;;26.55;15.73;;;;;;;;;;5065863;28;20524;-94
2022/01/15 13:00:05;;;;;;;31.15;18.02;;;;;;;;;;5068698;28;20106;-93
2022/01/15 13:02:31;;;;;;;30.10;17.55;;;;;;;;;;5100551;28;20092;-93
2022/01/15 13:04:57;;;;;;;29.02;17.45;;;;;;;;;;5068591;28;20492;-93
2022/01/15 13:07:23;;;;;;;28.63;16.90;;;;;;;;;;5064514;28;20418;-92
2022/01/15 13:09:50;;;;;;;31.10;18.63;;;;;;;;;;5086089;28;20130;-91
2022/01/15 13:12:16;;;;;;;29.75;17.45;;;;;;;;;;5068935;28;20032;-92
2022/01/15 13:14:43;;;;;;;26.98;16.92;;;;;;;;;;5082313;28;20032;-92
2022/01/15 13:17:20;;;;;;;27.10;17.60;;;;;;;;;;5070174;28;20123;-94
2022/01/15 13:19:46;;;;;;;26.38;16.20;;;;;;;;;;5070998;28;20036;-94
2022/01/15 13:22:12;;;;;;;31.58;18.88;;;;;;;;;;5089122;28;20043;-92
2022/01/15 13:24:38;;;;;;;28.85;17.75;;;;;;;;;;5080366;28;20032;-93
2022/01/15 13:27:05;;;;;;;30.10;19.40;;;;;;;;;;5065307;28;20380;-92
2022/01/15 13:29:42;;;;;;;32.70;20.00;;;;;;;;;;5073505;28;20051;-94
2022/01/15 13:32:09;;;;;;;33.08;19.35;;;;;;;;;;5057005;28;20028;-90
2022/01/15 13:34:36;;;;;;;31.98;19.67;;;;;;;;;;5117361;27;20044;-92
2022/01/15 13:37:13;;;;;;;35.42;18.75;;;;;;;;;;5062178;28;20090;-93
2022/01/15 13:39:40;;;;;;;33.53;20.25;;;;;;;;;;5064068;28;20028;-93
2022/01/15 13:42:17;;;;;;;32.88;19.92;;;;;;;;;;5069251;28;20039;-92
2022/01/15 13:44:43;;;;;;;32.63;19.98;;;;;;;;;;5082308;28;20044;-91
2022/01/15 13:47:11;;;;;;;33.83;19.98;;;;;;;;;;5073233;28;20086;-92
2022/01/15 13:55:23;;;;;;;32.78;18.90;;;;;;;;;;5082235;28;20410;-92
2022/01/15 13:57:49;;;;;;;32.47;19.00;;;;;;;;;;5067548;28;20391;-92
2022/01/15 14:00:16;;;;;;;31.42;20.38;;;;;;;;;;5081211;28;20042;-92
2022/01/15 14:02:49;;;;;;;30.50;17.90;;;;;;;;;;5065965;28;20656;-92
2022/01/15 14:05:20;;;;;;;25.90;17.23;;;;;;;;;;5071240;28;20040;-94
2022/01/15 14:07:48;;;;;;;27.95;17.55;;;;;;;;;;5058490;28;20036;-93
2022/01/15 14:10:22;;;;;;;28.10;17.17;;;;;;;;;;5066441;28;20519;-91
2022/01/15 14:13:05;;;;;;;25.95;16.15;;;;;;;;;;5081501;28;20044;-93
2022/01/15 14:15:36;;;;;;;24.42;15.32;;;;;;;;;;5058929;28;20097;-94
2022/01/15 14:18:08;;;;;;;26.40;16.13;;;;;;;;;;5065381;28;20047;-94
2022/01/15 14:23:33;;;;;;;24.83;15.50;;;;;;;;;;5078946;28;20044;-93
2022/01/15 14:26:00;;;;;;;24.85;15.85;;;;;;;;;;5063747;28;20459;-91
2022/01/15 14:28:27;;;;;;;26.70;16.45;;;;;;;;;;5065104;28;20127;-92
2022/01/15 14:30:55;;;;;;;22.27;14.32;;;;;;;;;;5083719;28;20031;-91
2022/01/15 14:33:22;;;;;;;23.60;15.55;;;;;;;;;;5051004;28;20088;-92
2022/01/15 14:35:48;;;;;;;26.23;15.73;;;;;;;;;;5076536;28;20031;-89
2022/01/15 14:38:15;;;;;;;25.13;15.60;;;;;;;;;;5052758;28;20107;-89
2022/01/15 14:40:41;;;;;;;26.35;17.40;;;;;;;;;;5082519;28;20040;-93
2022/01/15 14:43:07;;;;;;;25.75;15.07;;;;;;;;;;5061602;28;20046;-92
2022/01/15 14:45:37;;;;;;;28.10;17.20;;;;;;;;;;5061386;28;20607;-95
2022/01/15 14:48:04;;;;;;;29.85;17.15;;;;;;;;;;5059651;28;20046;-90
2022/01/15 14:50:31;;;;;;;25.65;16.63;;;;;;;;;;5065634;28;20053;-89
2022/01/15 14:52:57;;;;;;;25.48;16.27;;;;;;;;;;5069867;28;20035;-93
2022/01/15 14:55:23;;;;;;;26.50;16.45;;;;;;;;;;5064415;28;20080;-93
2022/01/15 14:57:49;;;;;;;26.55;16.27;;;;;;;;;;5076550;28;20255;-92
2022/01/15 15:00:16;;;;;;;27.63;16.75;;;;;;;;;;5056166;28;20044;-91
2022/01/15 15:02:42;;;;;;;24.88;16.67;;;;;;;;;;5064008;28;20128;-93
2022/01/15 15:05:10;;;;;;;26.92;17.25;;;;;;;;;;5069984;28;20036;-94